createdAt,value
2022-10-08T00:00:53.806Z,101555.09
2022-10-08T00:03:27.923Z,101576.97
2022-10-08T00:05:58.619Z,101564.91
2022-10-08T00:08:30.351Z,101555.22
2022-10-08T00:11:01.723Z,101558.47
2022-10-08T00:13:40.876Z,101571.06
2022-10-08T00:16:12.653Z,101565.50
2022-10-08T00:18:46.371Z,101558.53
2022-10-08T00:21:18.742Z,101564.16
2022-10-08T00:23:49.971Z,101569.94
2022-10-08T00:26:24.393Z,101573.34
2022-10-08T00:28:55.440Z,101579.28
2022-10-08T00:31:28.853Z,101568.94
2022-10-08T00:34:02.495Z,101562.91
2022-10-08T00:36:34.466Z,101561.28
2022-10-08T00:39:06.827Z,101563.72
2022-10-08T00:41:40.439Z,101553.97
2022-10-08T00:44:54.394Z,101585.63
2022-10-08T00:47:41.131Z,101590.53
2022-10-08T00:50:21.051Z,101579.44
2022-10-08T00:52:53.686Z,101602.75
2022-10-08T00:55:27.253Z,101589.03
2022-10-08T00:58:02.129Z,101570.88
2022-10-08T01:00:33.316Z,101602.97
2022-10-08T01:03:03.861Z,101606.97
2022-10-08T01:05:48.395Z,101613.09
2022-10-08T01:08:29.829Z,101608.75
2022-10-08T01:11:08.299Z,101606.66
2022-10-08T01:13:49.882Z,101614.16
2022-10-08T01:16:32.722Z,101612.66
2022-10-08T01:19:12.796Z,101620.16
2022-10-08T01:21:57.589Z,101616.06
2022-10-08T01:24:58.076Z,101614.88
2022-10-08T01:27:33.785Z,101628.94
2022-10-08T01:30:08.087Z,101624.78
2022-10-08T01:32:44.864Z,101620.16
2022-10-08T01:35:21.595Z,101627.81
2022-10-08T01:37:56.128Z,101633.59
2022-10-08T01:40:30.449Z,101622.19
2022-10-08T01:43:04.184Z,101634.50
2022-10-08T01:45:39.053Z,101627.31
2022-10-08T01:48:15.006Z,101640.41
2022-10-08T01:50:56.380Z,101632.28
2022-10-08T01:53:31.094Z,101649.66
2022-10-08T01:56:03.433Z,101658.38
2022-10-08T01:58:41.704Z,101664.38
2022-10-08T02:01:16.696Z,101669.63
2022-10-08T02:04:06.477Z,101668.72
2022-10-08T02:06:38.842Z,101659.59
2022-10-08T02:09:07.998Z,101668.63
2022-10-08T02:11:37.198Z,101669.31
2022-10-08T02:14:08.437Z,101664.66
2022-10-08T02:16:44.187Z,101674.56
2022-10-08T02:19:24.254Z,101661.16
2022-10-08T02:21:57.257Z,101666.81
2022-10-08T02:24:34.684Z,101660.22
2022-10-08T02:27:09.502Z,101654.06
2022-10-08T02:29:47.112Z,101663.03
2022-10-08T02:32:24.600Z,101662.97
2022-10-08T02:35:01.973Z,101671.78
2022-10-08T02:37:37.631Z,101662.56
2022-10-08T02:40:11.932Z,101672.06
2022-10-08T02:42:47.946Z,101671.25
2022-10-08T02:45:24.457Z,101669.91
2022-10-08T02:48:02.834Z,101673.47
2022-10-08T02:50:34.615Z,101679.00
2022-10-08T02:53:04.500Z,101668.25
2022-10-08T02:55:43.806Z,101645.00
2022-10-08T02:58:14.864Z,101685.50
2022-10-08T03:00:53.113Z,101679.28
2022-10-08T03:03:31.451Z,101679.38
2022-10-08T03:06:06.328Z,101685.31
2022-10-08T03:08:41.148Z,101668.81
2022-10-08T03:11:11.874Z,101684.03
2022-10-08T03:13:46.265Z,101689.75
2022-10-08T03:16:22.138Z,101673.72
2022-10-08T03:18:52.490Z,101693.06
2022-10-08T03:21:22.417Z,101683.53
2022-10-08T03:23:51.531Z,101683.47
2022-10-08T03:26:20.790Z,101681.06
2022-10-08T03:28:49.992Z,101696.34
2022-10-08T03:31:20.548Z,101680.56
2022-10-08T03:33:51.817Z,101693.75
2022-10-08T03:36:22.536Z,101690.22
2022-10-08T03:38:52.650Z,101690.13
2022-10-08T03:41:23.323Z,101700.28
2022-10-08T03:43:52.777Z,101687.28
2022-10-08T03:46:23.407Z,101676.72
2022-10-08T03:48:52.977Z,101711.81
2022-10-08T03:51:23.763Z,101704.94
2022-10-08T03:53:53.233Z,101716.47
2022-10-08T03:56:25.120Z,101707.81
2022-10-08T03:58:56.060Z,101725.81
2022-10-08T04:01:28.081Z,101731.81
2022-10-08T04:03:57.809Z,101730.75
2022-10-08T04:06:27.024Z,101739.28
2022-10-08T04:09:01.079Z,101738.44
2022-10-08T04:11:31.965Z,101748.84
2022-10-08T04:14:02.410Z,101740.16
2022-10-08T04:16:33.037Z,101746.16
2022-10-08T04:19:02.665Z,101745.06
2022-10-08T04:21:32.698Z,101745.06
2022-10-08T04:24:01.870Z,101750.56
2022-10-08T04:26:31.051Z,101732.09
2022-10-08T04:29:01.019Z,101750.03
2022-10-08T04:31:30.219Z,101761.56
2022-10-08T04:34:00.779Z,101762.38
2022-10-08T04:36:29.977Z,101750.66
2022-10-08T04:38:59.253Z,101753.09
2022-10-08T04:41:28.985Z,101754.50
2022-10-08T04:44:01.504Z,101751.25
2022-10-08T04:46:30.812Z,101761.56
2022-10-08T04:49:01.472Z,101768.16
2022-10-08T04:51:30.851Z,101772.22
2022-10-08T04:54:00.381Z,101774.69
2022-10-08T04:56:32.515Z,101777.41
2022-10-08T04:59:01.875Z,101781.84
2022-10-08T05:01:32.300Z,101788.41
2022-10-08T05:04:03.025Z,101780.53
2022-10-08T05:06:33.918Z,101796.88
2022-10-08T05:09:04.356Z,101797.75
2022-10-08T05:11:34.508Z,101805.91
2022-10-08T05:14:04.493Z,101760.72
2022-10-08T05:16:34.063Z,101796.88
2022-10-08T05:19:05.190Z,101790.31
2022-10-08T05:21:35.022Z,101772.91
2022-10-08T05:24:06.825Z,101788.63
2022-10-08T05:26:58.600Z,101780.22
2022-10-08T05:29:28.516Z,101784.56
2022-10-08T05:31:57.841Z,101789.50
2022-10-08T05:34:28.743Z,101786.22
2022-10-08T05:36:57.963Z,101799.34
2022-10-08T05:39:27.336Z,101800.97
2022-10-08T05:41:56.461Z,101788.13
2022-10-08T05:44:25.681Z,101792.19
2022-10-08T05:46:54.895Z,101778.31
2022-10-08T05:49:24.760Z,101760.63
2022-10-08T05:51:55.283Z,101779.91
2022-10-08T05:54:24.436Z,101773.94
2022-10-08T05:56:53.672Z,101790.03
2022-10-08T05:59:25.234Z,101785.16
2022-10-08T06:01:54.396Z,101794.97
2022-10-08T06:04:23.746Z,101802.91
2022-10-08T06:06:54.369Z,101791.16
2022-10-08T06:09:23.529Z,101796.09
2022-10-08T06:11:52.678Z,101800.47
2022-10-08T06:14:21.925Z,101804.53
2022-10-08T06:16:51.084Z,101798.53
2022-10-08T06:19:20.563Z,101798.78
2022-10-08T06:24:21.759Z,101798.53
2022-10-08T06:26:50.881Z,101802.03
2022-10-08T06:29:22.456Z,101792.72
2022-10-08T06:31:51.817Z,101804.75
2022-10-08T06:34:21.189Z,101797.66
2022-10-08T06:36:50.619Z,101818.91
2022-10-08T06:39:21.478Z,101824.69
2022-10-08T06:41:50.719Z,101803.72
2022-10-08T06:44:20.230Z,101821.88
2022-10-08T06:46:49.403Z,101826.81
2022-10-08T06:49:19.669Z,101824.31
2022-10-08T06:51:48.808Z,101835.81
2022-10-08T06:54:17.990Z,101838.50
2022-10-08T06:56:48.550Z,101842.94
2022-10-08T06:59:17.617Z,101837.97
2022-10-08T07:01:46.889Z,101847.28
2022-10-08T07:04:16.098Z,101846.19
2022-10-08T07:06:45.232Z,101853.25
2022-10-08T07:09:14.370Z,101853.78
2022-10-08T07:11:43.503Z,101859.03
2022-10-08T07:14:14.135Z,101857.34
2022-10-08T07:16:43.261Z,101867.75
2022-10-08T07:19:12.475Z,101860.06
2022-10-08T07:21:41.709Z,101863.91
2022-10-08T07:24:11.174Z,101860.00
2022-10-08T07:26:40.344Z,101856.72
2022-10-08T07:29:16.282Z,101867.16
2022-10-08T07:31:45.519Z,101871.56
2022-10-08T07:34:15.385Z,101869.81
2022-10-08T07:36:44.708Z,101889.78
2022-10-08T07:39:18.065Z,101883.78
2022-10-08T07:41:47.818Z,101889.53
2022-10-08T07:44:19.202Z,101885.84
2022-10-08T07:46:50.215Z,101887.75
2022-10-08T07:49:21.558Z,101889.47
2022-10-08T07:51:50.761Z,101896.03
2022-10-08T07:54:21.171Z,101900.91
2022-10-08T07:56:50.481Z,101891.34
2022-10-08T07:59:21.082Z,101897.63
2022-10-08T08:01:50.286Z,101887.75
2022-10-08T08:04:19.641Z,101913.03
2022-10-08T08:06:49.359Z,101913.81
2022-10-08T08:09:18.725Z,101913.09
2022-10-08T08:11:49.254Z,101898.75
2022-10-08T08:14:19.855Z,101913.50
2022-10-08T08:16:50.426Z,101906.28
2022-10-08T08:19:19.787Z,101907.16
2022-10-08T08:21:48.948Z,101929.25
2022-10-08T08:24:18.275Z,101929.16
2022-10-08T08:26:47.448Z,101927.09
2022-10-08T08:29:18.818Z,101922.44
2022-10-08T08:31:51.175Z,101926.97
2022-10-08T08:34:24.299Z,101922.44
2022-10-08T08:36:54.947Z,101921.44
2022-10-08T08:39:26.830Z,101931.88
2022-10-08T08:42:23.050Z,101931.19
2022-10-08T08:45:00.811Z,101934.81
2022-10-08T08:47:37.619Z,101935.13
2022-10-08T08:50:20.526Z,101940.63
2022-10-08T08:52:49.946Z,101932.47
2022-10-08T08:55:22.832Z,101941.00
2022-10-08T08:57:58.517Z,101942.28
2022-10-08T09:00:36.044Z,101945.75
2022-10-08T09:03:21.322Z,101945.91
2022-10-08T09:05:56.789Z,101939.00
2022-10-08T09:08:31.293Z,101948.66
2022-10-08T09:11:02.985Z,101950.19
2022-10-08T09:13:36.912Z,101958.19
2022-10-08T09:16:06.599Z,101947.41
2022-10-08T09:18:38.388Z,101952.44
2022-10-08T09:21:07.533Z,101957.97
2022-10-08T09:23:36.699Z,101954.81
2022-10-08T09:26:16.780Z,101959.00
2022-10-08T09:28:49.458Z,101956.03
2022-10-08T09:31:28.386Z,101960.03
2022-10-08T09:34:17.036Z,101951.19
2022-10-08T09:36:50.082Z,101961.31
2022-10-08T09:39:22.580Z,101945.34
2022-10-08T09:42:13.348Z,101956.34
2022-10-08T09:44:45.172Z,101966.53
2022-10-08T09:47:17.115Z,101953.28
2022-10-08T09:50:02.907Z,101959.44
2022-10-08T09:52:32.934Z,101968.91
2022-10-08T09:55:05.260Z,101965.69
2022-10-08T09:57:40.432Z,101962.81
2022-10-08T10:00:27.699Z,101960.63
2022-10-08T10:02:59.173Z,101969.88
2022-10-08T10:05:33.481Z,101966.13
2022-10-08T10:08:03.517Z,101957.25
2022-10-08T10:10:37.795Z,101969.03
2022-10-08T10:13:13.283Z,101971.44
2022-10-08T10:15:47.870Z,101963.53
2022-10-08T10:18:22.320Z,101969.78
2022-10-08T10:20:58.681Z,101977.28
2022-10-08T10:23:35.037Z,101975.53
2022-10-08T10:26:12.730Z,101967.41
2022-10-08T10:28:46.324Z,101973.22
2022-10-08T10:31:21.117Z,101965.66
2022-10-08T10:33:56.714Z,101964.94
2022-10-08T10:36:32.503Z,101964.16
2022-10-08T10:39:13.885Z,101969.94
2022-10-08T10:41:49.693Z,101969.69
2022-10-08T10:44:25.003Z,101975.38
2022-10-08T10:46:58.177Z,101966.06
2022-10-08T10:49:36.189Z,101963.97
2022-10-08T10:52:33.645Z,101978.63
2022-10-08T10:55:19.791Z,101971.31
2022-10-08T10:58:21.036Z,101976.72
2022-10-08T11:01:03.669Z,101974.69
2022-10-08T11:03:39.435Z,101969.09
2022-10-08T11:06:40.784Z,101966.03
2022-10-08T11:09:19.521Z,101981.41
2022-10-08T11:11:53.783Z,101949.78
2022-10-08T11:14:48.084Z,101951.41
2022-10-08T11:17:45.032Z,101973.22
2022-10-08T11:20:39.630Z,101970.06
2022-10-08T11:23:32.782Z,101958.75
2022-10-08T11:26:21.838Z,101967.13
2022-10-08T11:29:02.326Z,101966.53
2022-10-08T11:31:41.838Z,101964.47
2022-10-08T11:34:24.871Z,101961.56
2022-10-08T11:37:17.488Z,101955.72
2022-10-08T11:39:59.382Z,101943.88
2022-10-08T11:42:42.947Z,101951.44
2022-10-08T11:45:36.996Z,101945.97
2022-10-08T11:48:30.711Z,101956.56
2022-10-08T11:51:37.704Z,101951.47
2022-10-08T11:54:17.041Z,101938.38
2022-10-08T11:56:49.744Z,101944.16
2022-10-08T11:59:37.202Z,101945.06
2022-10-08T12:02:21.922Z,101945.41
2022-10-08T12:04:53.177Z,101945.53
2022-10-08T12:07:29.933Z,101938.94
2022-10-08T12:10:31.189Z,101936.09
2022-10-08T12:13:28.254Z,101953.38
2022-10-08T12:16:05.215Z,101938.81
2022-10-08T12:18:45.818Z,101944.94
2022-10-08T12:21:50.154Z,101937.47
2022-10-08T12:24:56.507Z,101935.59
2022-10-08T12:27:40.089Z,101934.75
2022-10-08T12:30:12.859Z,101923.66
2022-10-08T12:32:59.093Z,101925.13
2022-10-08T12:35:31.989Z,101916.94
2022-10-08T12:38:36.658Z,101916.81
2022-10-08T12:41:21.168Z,101918.09
2022-10-08T12:44:00.741Z,101925.59
2022-10-08T12:46:48.099Z,101919.84
2022-10-08T12:49:30.619Z,101910.34
2022-10-08T12:52:06.550Z,101907.06
2022-10-08T12:54:36.141Z,101903.97
2022-10-08T12:57:12.443Z,101900.56
2022-10-08T12:59:43.057Z,101891.19
2022-10-08T13:02:35.675Z,101876.34
2022-10-08T13:05:07.586Z,101873.56
2022-10-08T13:07:37.190Z,101882.38
2022-10-08T13:10:21.329Z,101880.91
2022-10-08T13:13:04.860Z,101879.75
2022-10-08T13:15:35.995Z,101866.81
2022-10-08T13:18:15.956Z,101875.94
2022-10-08T13:20:59.194Z,101865.34
2022-10-08T13:23:35.113Z,101876.22
2022-10-08T13:26:05.041Z,101865.94
2022-10-08T13:28:59.152Z,101871.56
2022-10-08T13:31:25.062Z,101862.09
2022-10-08T13:33:54.603Z,101867.84
2022-10-08T13:36:25.332Z,101861.59
2022-10-08T13:38:54.573Z,101851.53
2022-10-08T13:41:25.297Z,101855.19
2022-10-08T13:43:54.434Z,101855.09
2022-10-08T13:46:23.594Z,101840.13
2022-10-08T13:48:52.692Z,101858.16
2022-10-08T13:51:21.883Z,101855.47
2022-10-08T13:53:56.821Z,101841.03
2022-10-08T13:56:26.413Z,101853.06
2022-10-08T13:58:55.578Z,101841.69
2022-10-08T14:01:24.758Z,101836.03
2022-10-08T14:03:53.916Z,101828.41
2022-10-08T14:06:23.979Z,101829.56
2022-10-08T14:08:54.580Z,101828.16
2022-10-08T14:11:23.732Z,101829.66
2022-10-08T14:13:52.940Z,101813.16
2022-10-08T14:16:22.064Z,101832.19
2022-10-08T14:18:51.219Z,101816.34
2022-10-08T14:21:20.377Z,101826.00
2022-10-08T14:23:49.789Z,101823.31
2022-10-08T14:26:20.363Z,101817.09
2022-10-08T14:28:49.520Z,101814.53
2022-10-08T14:31:18.871Z,101803.72
2022-10-08T14:33:48.088Z,101809.06
2022-10-08T14:36:19.907Z,101788.81
2022-10-08T14:38:49.516Z,101788.00
2022-10-08T14:41:20.081Z,101801.03
2022-10-08T14:43:49.214Z,101783.78
2022-10-08T14:46:18.587Z,101785.59
2022-10-08T14:48:47.785Z,101781.59
2022-10-08T14:51:17.027Z,101799.59
2022-10-08T14:53:46.274Z,101798.41
2022-10-08T14:56:15.382Z,101782.22
2022-10-08T14:58:45.886Z,101790.09
2022-10-08T15:01:15.032Z,101787.56
2022-10-08T15:03:45.860Z,101770.94
2022-10-08T15:06:15.182Z,101776.66
2022-10-08T15:08:44.299Z,101768.69
2022-10-08T15:11:13.693Z,101763.16
2022-10-08T15:13:42.944Z,101770.38
2022-10-08T15:16:15.293Z,101747.34
2022-10-08T15:18:45.215Z,101761.81
2022-10-08T15:21:14.486Z,101758.00
2022-10-08T15:23:43.610Z,101756.94
2022-10-08T15:26:16.529Z,101768.06
2022-10-08T15:28:47.147Z,101758.00
2022-10-08T15:31:20.146Z,101752.88
2022-10-08T15:33:51.821Z,101754.56
2022-10-08T15:36:23.611Z,101737.72
2022-10-08T15:38:58.504Z,101733.72
2022-10-08T15:41:29.679Z,101737.84
2022-10-08T15:44:10.114Z,101728.88
2022-10-08T15:46:40.723Z,101720.47
2022-10-08T15:49:09.982Z,101732.09
2022-10-08T15:51:39.118Z,101719.13
2022-10-08T15:54:09.018Z,101711.59
2022-10-08T15:56:38.221Z,101711.13
2022-10-08T15:59:07.450Z,101692.56
2022-10-08T16:01:37.018Z,101713.66
2022-10-08T16:04:08.103Z,101702.81
2022-10-08T16:06:38.161Z,101707.38
2022-10-08T16:09:07.407Z,101704.78
2022-10-08T16:11:36.801Z,101699.56
2022-10-08T16:14:08.623Z,101696.47
2022-10-08T16:16:38.755Z,101682.16
2022-10-08T16:19:13.131Z,101693.97
2022-10-08T16:21:42.360Z,101694.41
2022-10-08T16:24:12.115Z,101700.88
2022-10-08T16:26:42.760Z,101688.13
2022-10-08T16:29:15.046Z,101690.25
2022-10-08T16:31:46.232Z,101692.66
2022-10-08T16:34:19.223Z,101676.41
2022-10-08T16:36:49.189Z,101663.47
2022-10-08T16:39:20.867Z,101685.31
2022-10-08T16:41:50.821Z,101679.28
2022-10-08T16:44:21.837Z,101676.03
2022-10-08T16:46:53.071Z,101667.00
2022-10-08T16:49:26.594Z,101677.78
2022-10-08T16:51:59.144Z,101669.41
2022-10-08T16:54:29.496Z,101664.22
2022-10-08T16:56:59.210Z,101661.50
2022-10-08T16:59:30.429Z,101657.94
2022-10-08T17:02:01.083Z,101655.34
2022-10-08T17:04:36.370Z,101659.91
2022-10-08T17:07:05.752Z,101660.72
2022-10-08T17:09:35.152Z,101652.75
2022-10-08T17:12:04.439Z,101653.44
2022-10-08T17:14:33.513Z,101655.22
2022-10-08T17:17:02.881Z,101651.34
2022-10-08T17:19:33.452Z,101652.38
2022-10-08T17:22:02.869Z,101660.03
2022-10-08T17:24:31.999Z,101647.84
2022-10-08T17:27:01.132Z,101646.06
2022-10-08T17:29:30.298Z,101661.69
2022-10-08T17:32:02.806Z,101637.50
2022-10-08T17:34:33.665Z,101647.91
2022-10-08T17:37:02.790Z,101659.09
2022-10-08T17:39:32.742Z,101657.00
2022-10-08T17:42:06.288Z,101664.66
2022-10-08T17:44:36.339Z,101657.19
2022-10-08T17:47:06.420Z,101641.31
2022-10-08T17:49:36.930Z,101659.63
2022-10-08T17:52:06.239Z,101669.72
2022-10-08T17:54:35.487Z,101667.78
2022-10-08T17:57:04.801Z,101669.19
2022-10-08T17:59:33.957Z,101666.63
2022-10-08T18:02:03.572Z,101610.63
2022-10-08T18:04:32.849Z,101679.09
2022-10-08T18:07:03.799Z,101672.97
2022-10-08T18:09:33.391Z,101676.03
2022-10-08T18:12:02.642Z,101667.75
2022-10-08T18:14:31.873Z,101676.34
2022-10-08T18:17:01.063Z,101660.75
2022-10-08T18:19:30.204Z,101662.69
2022-10-08T18:21:59.358Z,101657.84
2022-10-08T18:24:29.935Z,101643.69
2022-10-08T18:26:59.563Z,101673.22
2022-10-08T18:29:28.793Z,101667.22
2022-10-08T18:31:57.959Z,101672.06
2022-10-08T18:34:27.059Z,101673.50
2022-10-08T18:36:56.619Z,101666.88
2022-10-08T18:39:28.402Z,101661.00
2022-10-08T18:41:59.468Z,101664.72
2022-10-08T18:44:28.648Z,101658.72
2022-10-08T18:47:03.035Z,101656.75
2022-10-08T18:49:34.331Z,101653.25
2022-10-08T18:52:03.523Z,101657.00
2022-10-08T18:54:32.737Z,101648.38
2022-10-08T18:57:03.323Z,101654.03
2022-10-08T18:59:32.717Z,101647.69
2022-10-08T19:02:02.454Z,101668.09
2022-10-08T19:04:31.694Z,101659.59
2022-10-08T19:07:00.872Z,101660.91
2022-10-08T19:09:30.318Z,101668.31
2022-10-08T19:12:00.978Z,101667.78
2022-10-08T19:14:31.859Z,101670.50
2022-10-08T19:17:01.501Z,101655.06
2022-10-08T19:19:31.864Z,101646.88
2022-10-08T19:22:01.810Z,101673.63
2022-10-08T19:24:31.223Z,101668.72
2022-10-08T19:27:00.403Z,101664.72
2022-10-08T19:29:33.804Z,101658.41
2022-10-08T19:32:03.225Z,101665.31
2022-10-08T19:34:33.594Z,101650.22
2022-10-08T19:37:02.799Z,101650.03
2022-10-08T19:39:33.776Z,101660.28
2022-10-08T19:42:03.089Z,101642.59
2022-10-08T19:44:33.629Z,101644.31
2022-10-08T19:47:04.129Z,101646.44
2022-10-08T19:49:33.370Z,101633.44
2022-10-08T19:52:02.565Z,101634.88
2022-10-08T19:54:31.779Z,101638.13
2022-10-08T19:57:00.943Z,101628.31
2022-10-08T19:59:30.458Z,101632.66
2022-10-08T20:02:01.178Z,101610.78
2022-10-08T20:04:30.518Z,101632.78
2022-10-08T20:07:02.476Z,101610.22
2022-10-08T20:09:36.053Z,101625.66
2022-10-08T20:12:05.624Z,101611.13
2022-10-08T20:14:35.005Z,101625.19
2022-10-08T20:17:05.809Z,101619.06
2022-10-08T20:19:35.442Z,101627.63
2022-10-08T20:22:07.466Z,101622.75
2022-10-08T20:24:39.088Z,101613.41
2022-10-08T20:27:08.428Z,101598.88
2022-10-08T20:29:37.764Z,101599.16
2022-10-08T20:32:08.448Z,101602.56
2022-10-08T20:34:37.934Z,101585.09
2022-10-08T20:37:07.305Z,101605.84
2022-10-08T20:39:36.625Z,101594.09
2022-10-08T20:42:06.108Z,101615.50
2022-10-08T20:44:35.320Z,101604.72
2022-10-08T20:47:04.638Z,101570.47
2022-10-08T20:49:36.263Z,101602.53
2022-10-08T20:52:05.553Z,101591.53
2022-10-08T20:54:35.225Z,101593.56
2022-10-08T20:57:04.776Z,101593.94
2022-10-08T20:59:34.716Z,101596.63
2022-10-08T21:02:05.694Z,101585.94
2022-10-08T21:04:36.412Z,101584.25
2022-10-08T21:07:05.664Z,101576.47
2022-10-08T21:09:34.834Z,101575.22
2022-10-08T21:12:04.708Z,101553.66
2022-10-08T21:14:34.022Z,101564.56
2022-10-08T21:17:03.262Z,101563.13
2022-10-08T21:19:32.660Z,101557.94
2022-10-08T21:22:03.255Z,101546.28
2022-10-08T21:24:32.903Z,101538.69
2022-10-08T21:27:01.980Z,101530.06
2022-10-08T21:29:31.102Z,101548.28
2022-10-08T21:32:00.335Z,101549.59
2022-10-08T21:34:29.569Z,101541.81
2022-10-08T21:36:58.819Z,101527.56
2022-10-08T21:39:29.358Z,101531.81
2022-10-08T21:41:58.769Z,101533.59
2022-10-08T21:44:28.008Z,101528.09
2022-10-08T21:46:57.341Z,101524.84
2022-10-08T21:49:27.484Z,101521.63
2022-10-08T21:51:57.697Z,101516.09
2022-10-08T21:54:28.187Z,101516.09
2022-10-08T21:56:57.628Z,101497.44
2022-10-08T21:59:26.876Z,101513.03
2022-10-08T22:01:57.674Z,101506.88
2022-10-08T22:04:27.156Z,101512.72
2022-10-08T22:06:59.841Z,101488.22
2022-10-08T22:09:31.854Z,101497.09
2022-10-08T22:12:02.647Z,101506.97
2022-10-08T22:14:31.932Z,101503.59
2022-10-08T22:17:01.091Z,101497.28
2022-10-08T22:19:30.866Z,101493.75
2022-10-08T22:22:00.073Z,101496.97
2022-10-08T22:24:30.854Z,101491.78
2022-10-08T22:26:59.982Z,101490.66
2022-10-08T22:29:29.155Z,101487.41
2022-10-08T22:31:58.407Z,101473.66
2022-10-08T22:34:27.743Z,101483.69
2022-10-08T22:36:56.934Z,101480.63
2022-10-08T22:39:26.131Z,101473.34
2022-10-08T22:41:56.615Z,101465.06
2022-10-08T22:44:25.795Z,101456.47
2022-10-08T22:46:54.896Z,101459.88
2022-10-08T22:49:23.989Z,101451.28
2022-10-08T22:51:53.147Z,101439.75
2022-10-08T22:54:22.302Z,101434.75
2022-10-08T22:56:51.580Z,101430.53
2022-10-08T22:59:22.239Z,101426.31
2022-10-08T23:01:51.506Z,101420.00
2022-10-08T23:04:20.717Z,101399.44
2022-10-08T23:06:50.206Z,101363.19
2022-10-08T23:09:19.398Z,101408.06
2022-10-08T23:11:48.547Z,101403.84
2022-10-08T23:14:17.774Z,101412.09
2022-10-08T23:16:49.835Z,101392.03
2022-10-08T23:19:19.075Z,101385.22
2022-10-08T23:21:48.243Z,101382.63
2022-10-08T23:24:17.415Z,101377.28
2022-10-08T23:26:46.662Z,101362.88
2022-10-08T23:29:15.805Z,101354.94
2022-10-08T23:31:45.346Z,101362.41
2022-10-08T23:34:16.095Z,101341.81
2022-10-08T23:36:46.683Z,101338.09
2022-10-08T23:39:17.892Z,101339.06
2022-10-08T23:41:47.156Z,101344.09
2022-10-08T23:44:16.358Z,101341.66
2022-10-08T23:46:45.822Z,101311.06
2022-10-08T23:49:17.550Z,101311.84
2022-10-08T23:51:46.694Z,101318.66
2022-10-08T23:54:15.855Z,101313.97
2022-10-08T23:56:44.971Z,101312.00
2022-10-08T23:59:14.145Z,101303.94
